createdAt,value
2023-04-12T00:01:47.008Z,6.85
2023-04-12T00:05:03.119Z,6.87
2023-04-12T00:08:17.006Z,5.20
2023-04-12T00:11:31.583Z,6.95
2023-04-12T00:14:44.266Z,10.20
2023-04-12T00:17:56.958Z,8.05
2023-04-12T00:21:10.456Z,7.72
2023-04-12T00:24:23.128Z,6.35
2023-04-12T00:27:35.676Z,7.32
2023-04-12T00:30:48.331Z,5.80
2023-04-12T00:34:00.703Z,9.13
2023-04-12T00:37:13.349Z,7.75
2023-04-12T00:40:25.919Z,6.57
2023-04-12T00:43:41.743Z,10.30
2023-04-12T00:46:54.804Z,5.97
2023-04-12T00:50:08.597Z,7.15
2023-04-12T00:53:22.081Z,8.35
2023-04-12T00:56:34.856Z,8.80
2023-04-12T00:59:47.222Z,6.93
2023-04-12T01:03:02.515Z,8.13
2023-04-12T01:06:27.100Z,6.25
2023-04-12T01:09:54.360Z,8.98
2023-04-12T01:13:09.882Z,8.95
2023-04-12T01:16:53.701Z,7.82
2023-04-12T01:20:13.511Z,8.00
2023-04-12T01:23:41.685Z,11.20
2023-04-12T01:26:54.053Z,7.95
2023-04-12T01:30:10.299Z,10.18
2023-04-12T01:33:22.750Z,10.27
2023-04-12T01:36:35.584Z,9.63
2023-04-12T01:39:48.059Z,8.57
2023-04-12T01:43:13.729Z,11.65
2023-04-12T01:46:26.097Z,8.98
2023-04-12T01:49:49.910Z,10.90
2023-04-12T01:53:04.201Z,11.90
2023-04-12T01:56:18.604Z,9.27
2023-04-12T01:59:32.437Z,9.40
2023-04-12T02:02:45.271Z,11.15
2023-04-12T02:05:58.452Z,9.43
2023-04-12T02:09:10.833Z,9.23
2023-04-12T02:12:23.721Z,11.43
2023-04-12T02:15:37.497Z,11.57
2023-04-12T02:18:50.989Z,7.72
2023-04-12T02:22:04.587Z,10.90
2023-04-12T02:25:19.753Z,10.38
2023-04-12T02:28:34.632Z,11.57
2023-04-12T02:31:48.381Z,10.05
2023-04-12T02:35:02.882Z,12.57
2023-04-12T02:38:16.601Z,13.45
2023-04-12T02:41:29.749Z,9.43
2023-04-12T02:44:44.234Z,13.70
2023-04-12T02:47:57.277Z,10.10
2023-04-12T02:51:10.101Z,11.60
2023-04-12T02:54:23.560Z,11.73
2023-04-12T02:57:36.934Z,11.43
2023-04-12T03:00:51.024Z,13.93
2023-04-12T03:04:03.998Z,9.43
2023-04-12T03:07:19.167Z,10.48
2023-04-12T03:10:31.901Z,11.27
2023-04-12T03:13:45.898Z,10.07
2023-04-12T03:16:58.605Z,12.13
2023-04-12T03:20:12.011Z,9.23
2023-04-12T03:23:25.406Z,8.63
2023-04-12T03:26:38.832Z,11.38
2023-04-12T03:29:52.427Z,10.63
2023-04-12T03:33:05.900Z,9.25
2023-04-12T03:36:21.241Z,13.25
2023-04-12T03:39:36.332Z,9.70
2023-04-12T03:42:49.177Z,9.40
2023-04-12T03:46:05.282Z,12.65
2023-04-12T03:49:18.294Z,10.68
2023-04-12T03:52:31.857Z,11.60
2023-04-12T03:55:44.426Z,13.35
2023-04-12T03:58:57.416Z,9.25
2023-04-12T04:02:10.391Z,12.57
2023-04-12T04:05:24.084Z,10.50
2023-04-12T04:08:37.599Z,12.52
2023-04-12T04:11:51.704Z,12.60
2023-04-12T04:15:06.167Z,14.55
2023-04-12T04:18:19.007Z,10.90
2023-04-12T04:21:32.652Z,11.63
2023-04-12T04:24:45.574Z,10.68
2023-04-12T04:27:59.590Z,11.85
2023-04-12T04:31:12.782Z,15.55
2023-04-12T04:34:25.643Z,13.73
2023-04-12T04:37:41.026Z,13.23
2023-04-12T04:40:53.880Z,11.70
2023-04-12T04:44:10.451Z,10.90
2023-04-12T04:47:25.069Z,11.38
2023-04-12T04:50:37.858Z,11.48
2023-04-12T04:53:50.495Z,9.70
2023-04-12T04:57:04.839Z,10.30
2023-04-12T05:00:18.459Z,13.05
2023-04-12T05:03:34.180Z,10.55
2023-04-12T05:06:46.672Z,9.30
2023-04-12T05:09:59.881Z,12.60
2023-04-12T05:13:12.313Z,11.52
2023-04-12T05:16:25.023Z,12.52
2023-04-12T05:19:37.621Z,10.95
2023-04-12T05:22:50.416Z,14.87
2023-04-12T05:26:02.794Z,11.52
2023-04-12T05:29:15.973Z,10.25
2023-04-12T05:32:28.483Z,9.95
2023-04-12T05:35:41.362Z,11.55
2023-04-12T05:38:55.491Z,11.63
2023-04-12T05:42:08.541Z,10.30
2023-04-12T05:45:21.655Z,10.73
2023-04-12T05:48:35.720Z,12.05
2023-04-12T05:51:48.397Z,9.68
2023-04-12T05:55:03.866Z,8.10
2023-04-12T06:01:42.008Z,10.43
2023-04-12T06:05:02.462Z,10.48
2023-04-12T06:08:15.674Z,10.10
2023-04-12T06:11:30.538Z,10.95
2023-04-12T06:14:44.392Z,10.52
2023-04-12T06:17:59.809Z,9.45
2023-04-12T06:21:18.508Z,6.62
2023-04-12T06:24:37.262Z,8.73
2023-04-12T06:27:56.092Z,8.50
2023-04-12T06:31:16.189Z,10.82
2023-04-12T06:34:34.910Z,6.57
2023-04-12T06:37:56.166Z,7.10
2023-04-12T06:41:17.123Z,6.82
2023-04-12T06:44:55.846Z,7.28
2023-04-12T06:48:09.066Z,7.82
2023-04-12T06:51:31.585Z,6.80
2023-04-12T06:54:44.112Z,5.78
2023-04-12T06:58:09.937Z,5.80
2023-04-12T07:01:24.575Z,6.15
2023-04-12T07:04:43.957Z,6.93
2023-04-12T07:07:58.094Z,7.37
2023-04-12T07:11:20.999Z,9.35
2023-04-12T07:14:35.959Z,5.45
2023-04-12T07:17:49.003Z,7.75
2023-04-12T07:21:07.220Z,10.93
2023-04-12T07:24:20.990Z,10.00
2023-04-12T07:27:34.009Z,7.55
2023-04-12T07:30:58.301Z,6.62
2023-04-12T07:34:11.391Z,6.28
2023-04-12T07:37:25.003Z,8.10
2023-04-12T07:40:37.391Z,8.38
2023-04-12T07:43:50.334Z,10.40
2023-04-12T07:47:02.822Z,8.70
2023-04-12T07:50:15.555Z,7.75
2023-04-12T07:53:28.591Z,11.12
2023-04-12T07:56:41.734Z,10.27
2023-04-12T07:59:54.039Z,7.50
2023-04-12T08:03:06.894Z,8.88
2023-04-12T08:06:23.712Z,7.95
2023-04-12T08:09:36.069Z,15.00
2023-04-12T08:12:48.754Z,9.05
2023-04-12T08:16:01.731Z,8.38
2023-04-12T08:19:14.759Z,7.87
2023-04-12T08:22:27.266Z,9.73
2023-04-12T08:25:40.019Z,8.38
2023-04-12T08:28:53.013Z,8.15
2023-04-12T08:32:05.976Z,7.32
2023-04-12T08:35:18.400Z,8.02
2023-04-12T08:41:49.987Z,6.50
2023-04-12T08:45:08.933Z,7.90
2023-04-12T08:48:22.760Z,8.40
2023-04-12T08:51:37.057Z,9.60
2023-04-12T08:54:49.459Z,6.37
2023-04-12T08:58:04.066Z,6.97
2023-04-12T09:01:17.073Z,8.30
2023-04-12T09:04:30.020Z,9.55
2023-04-12T09:07:42.651Z,5.82
2023-04-12T09:10:56.844Z,7.55
2023-04-12T09:14:25.682Z,7.12
2023-04-12T09:17:39.080Z,6.18
2023-04-12T09:20:51.623Z,8.85
2023-04-12T09:24:14.868Z,9.95
2023-04-12T09:27:28.529Z,7.72
2023-04-12T09:30:45.046Z,8.75
2023-04-12T09:34:08.548Z,7.78
2023-04-12T09:37:21.410Z,7.32
2023-04-12T09:40:36.362Z,6.45
2023-04-12T09:43:49.200Z,8.30
2023-04-12T09:47:02.282Z,6.68
2023-04-12T09:50:26.372Z,9.88
2023-04-12T09:53:40.516Z,9.15
2023-04-12T09:56:54.598Z,11.40
2023-04-12T10:00:12.934Z,6.45
2023-04-12T10:03:25.781Z,7.10
2023-04-12T10:06:38.979Z,8.73
2023-04-12T10:09:52.996Z,5.07
2023-04-12T10:13:05.413Z,6.50
2023-04-12T10:16:18.156Z,7.22
2023-04-12T10:19:31.345Z,8.75
2023-04-12T10:22:48.536Z,9.48
2023-04-12T10:26:01.745Z,4.95
2023-04-12T10:29:27.399Z,6.72
2023-04-12T10:32:39.844Z,6.70
2023-04-12T10:35:57.768Z,5.28
2023-04-12T10:39:11.100Z,6.45
2023-04-12T10:42:27.567Z,6.82
2023-04-12T10:45:41.265Z,7.62
2023-04-12T10:48:54.042Z,6.00
2023-04-12T10:52:09.147Z,6.12
2023-04-12T10:55:27.961Z,7.72
2023-04-12T10:58:49.615Z,7.28
2023-04-12T11:02:13.099Z,5.87
2023-04-12T11:05:25.909Z,5.43
2023-04-12T11:08:39.886Z,6.60
2023-04-12T11:12:13.526Z,5.97
2023-04-12T11:15:27.264Z,6.47
2023-04-12T11:18:40.194Z,7.28
2023-04-12T11:21:53.536Z,6.35
2023-04-12T11:25:06.403Z,6.87
2023-04-12T11:28:28.852Z,6.35
2023-04-12T11:31:43.134Z,7.90
2023-04-12T11:34:56.803Z,9.82
2023-04-12T11:38:09.185Z,8.45
2023-04-12T11:41:21.927Z,7.00
2023-04-12T11:44:52.075Z,5.70
2023-04-12T11:48:10.867Z,6.40
2023-04-12T11:51:29.932Z,9.40
2023-04-12T11:54:50.909Z,7.55
2023-04-12T11:58:03.370Z,6.90
2023-04-12T12:01:16.142Z,7.47
2023-04-12T12:04:29.746Z,7.55
2023-04-12T12:07:42.533Z,8.07
2023-04-12T12:11:06.281Z,8.88
2023-04-12T12:14:21.340Z,7.80
2023-04-12T12:17:36.771Z,8.13
2023-04-12T12:20:49.875Z,8.15
2023-04-12T12:24:02.548Z,6.50
2023-04-12T12:27:18.511Z,7.80
2023-04-12T12:30:31.858Z,6.47
2023-04-12T12:33:47.055Z,5.75
2023-04-12T12:37:00.230Z,6.25
2023-04-12T12:40:16.737Z,8.38
2023-04-12T12:43:29.546Z,6.32
2023-04-12T12:49:58.074Z,6.30
2023-04-12T12:53:10.750Z,5.57
2023-04-12T12:56:23.406Z,6.35
2023-04-12T12:59:35.909Z,7.20
2023-04-12T13:02:48.763Z,7.37
2023-04-12T13:06:01.388Z,9.63
2023-04-12T13:09:14.040Z,7.47
2023-04-12T13:12:26.563Z,7.32
2023-04-12T13:15:39.206Z,5.55
2023-04-12T13:18:51.499Z,6.78
2023-04-12T13:22:04.201Z,5.15
2023-04-12T13:25:16.808Z,5.70
2023-04-12T13:28:29.468Z,7.47
2023-04-12T13:31:41.835Z,7.78
2023-04-12T13:34:54.591Z,6.60
2023-04-12T13:38:06.914Z,4.57
2023-04-12T13:41:19.587Z,5.95
2023-04-12T13:44:31.998Z,4.47
2023-04-12T13:47:44.613Z,3.85
2023-04-12T13:50:57.127Z,5.50
2023-04-12T13:54:09.800Z,5.55
2023-04-12T13:57:22.119Z,8.73
2023-04-12T14:00:34.787Z,5.25
2023-04-12T14:03:48.253Z,4.45
2023-04-12T14:07:00.907Z,7.50
2023-04-12T14:10:14.654Z,6.53
2023-04-12T14:13:27.133Z,7.57
2023-04-12T14:16:39.807Z,7.10
2023-04-12T14:19:52.651Z,4.35
2023-04-12T14:23:07.348Z,5.30
2023-04-12T14:26:20.381Z,5.72
2023-04-12T14:29:33.025Z,4.37
2023-04-12T14:32:46.777Z,10.65
2023-04-12T14:36:05.037Z,5.03
2023-04-12T14:39:17.639Z,6.22
2023-04-12T14:42:30.549Z,3.87
2023-04-12T14:45:42.923Z,4.57
2023-04-12T14:48:57.390Z,4.85
2023-04-12T14:52:11.292Z,3.50
2023-04-12T14:55:23.946Z,5.85
2023-04-12T14:58:36.591Z,7.12
2023-04-12T15:01:49.333Z,6.00
2023-04-12T15:05:07.300Z,5.32
2023-04-12T15:08:20.128Z,3.53
2023-04-12T15:11:35.753Z,4.60
2023-04-12T15:14:50.734Z,5.60
2023-04-12T15:18:03.472Z,5.78
2023-04-12T15:21:16.230Z,5.62
2023-04-12T15:24:30.863Z,5.53
2023-04-12T15:27:44.225Z,7.97
2023-04-12T15:30:57.149Z,6.35
2023-04-12T15:34:10.680Z,5.35
2023-04-12T15:37:23.296Z,4.15
2023-04-12T15:40:36.590Z,4.45
2023-04-12T15:43:49.474Z,5.18
2023-04-12T15:47:11.011Z,7.32
2023-04-12T15:50:24.370Z,9.18
2023-04-12T15:53:37.063Z,5.57
2023-04-12T15:56:50.852Z,7.28
2023-04-12T16:00:12.792Z,4.30
2023-04-12T16:03:26.186Z,5.45
2023-04-12T16:06:39.646Z,10.23
2023-04-12T16:09:52.886Z,6.07
2023-04-12T16:13:05.263Z,9.18
2023-04-12T16:16:18.555Z,7.00
2023-04-12T16:19:30.967Z,4.97
2023-04-12T16:22:44.896Z,6.30
2023-04-12T16:25:57.390Z,5.22
2023-04-12T16:29:10.734Z,12.07
2023-04-12T16:32:23.091Z,7.28
2023-04-12T16:35:36.302Z,8.18
2023-04-12T16:38:49.504Z,8.90
2023-04-12T16:42:04.175Z,9.43
2023-04-12T16:45:16.667Z,8.38
2023-04-12T16:48:29.471Z,10.57
2023-04-12T16:51:42.099Z,17.95
2023-04-12T16:54:54.759Z,18.55
2023-04-12T16:58:07.089Z,14.27
2023-04-12T17:01:19.738Z,12.30
2023-04-12T17:04:32.531Z,15.98
2023-04-12T17:07:50.678Z,10.25
2023-04-12T17:11:03.013Z,9.65
2023-04-12T17:14:15.766Z,10.95
2023-04-12T17:17:28.152Z,12.35
2023-04-12T17:20:41.110Z,14.18
2023-04-12T17:23:56.013Z,16.77
2023-04-12T17:27:09.214Z,22.55
2023-04-12T17:30:21.684Z,32.80
2023-04-12T17:33:34.659Z,38.65
2023-04-12T17:36:47.065Z,23.23
2023-04-12T17:39:59.709Z,28.23
2023-04-12T17:43:12.229Z,25.77
2023-04-12T17:46:24.926Z,18.65
2023-04-12T17:49:37.349Z,25.85
2023-04-12T17:52:50.025Z,34.80
2023-04-12T17:56:02.851Z,19.87
2023-04-12T17:59:15.577Z,14.00
2023-04-12T18:02:28.216Z,21.75
2023-04-12T18:05:42.083Z,19.83
2023-04-12T18:08:54.393Z,17.33
2023-04-12T18:12:07.559Z,25.05
2023-04-12T18:15:20.060Z,76.50
2023-04-12T18:18:32.978Z,79.03
2023-04-12T18:21:48.276Z,57.55
2023-04-12T18:25:01.263Z,75.65
2023-04-12T18:28:13.765Z,86.60
2023-04-12T18:31:27.334Z,83.15
2023-04-12T18:34:39.744Z,77.95
2023-04-12T18:37:52.812Z,57.75
2023-04-12T18:41:09.799Z,24.85
2023-04-12T18:47:34.539Z,36.85
2023-04-12T18:50:47.600Z,26.60
2023-04-12T18:54:00.675Z,52.03
2023-04-12T18:57:15.971Z,55.78
2023-04-12T19:00:28.844Z,53.17
2023-04-12T19:03:41.702Z,78.18
2023-04-12T19:06:55.165Z,59.10
2023-04-12T19:10:09.124Z,53.05
2023-04-12T19:13:21.465Z,44.45
2023-04-12T19:16:34.578Z,76.20
2023-04-12T19:19:46.895Z,75.07
2023-04-12T19:22:59.523Z,51.33
2023-04-12T19:26:11.916Z,165.07
2023-04-12T19:29:25.643Z,94.68
2023-04-12T19:32:38.082Z,76.62
2023-04-12T19:35:52.054Z,83.30
2023-04-12T19:39:04.402Z,71.05
2023-04-12T19:42:17.758Z,54.17
2023-04-12T19:45:30.583Z,51.67
2023-04-12T19:48:43.303Z,47.30
2023-04-12T19:51:56.278Z,46.17
2023-04-12T19:55:11.165Z,39.70
2023-04-12T19:58:24.247Z,36.83
2023-04-12T20:01:47.860Z,42.13
2023-04-12T20:05:00.904Z,44.33
2023-04-12T20:08:15.065Z,38.78
2023-04-12T20:11:27.707Z,41.60
2023-04-12T20:14:40.602Z,45.67
2023-04-12T20:17:53.317Z,40.53
2023-04-12T20:21:10.101Z,50.08
2023-04-12T20:24:25.563Z,57.03
2023-04-12T20:27:39.062Z,53.33
2023-04-12T20:30:53.200Z,49.15
2023-04-12T20:34:06.345Z,39.58
2023-04-12T20:37:18.997Z,42.58
2023-04-12T20:40:31.432Z,101.35
2023-04-12T20:43:46.083Z,278.33
2023-04-12T20:46:58.848Z,371.15
2023-04-12T20:50:12.522Z,113.55
2023-04-12T20:53:25.569Z,88.53
2023-04-12T20:56:38.224Z,74.97
2023-04-12T20:59:53.355Z,111.22
2023-04-12T21:03:06.321Z,93.37
2023-04-12T21:06:18.820Z,92.75
2023-04-12T21:09:31.484Z,72.72
2023-04-12T21:12:45.088Z,71.40
2023-04-12T21:15:59.204Z,64.22
2023-04-12T21:19:11.606Z,70.85
2023-04-12T21:22:24.352Z,63.75
2023-04-12T21:25:36.729Z,52.35
2023-04-12T21:28:49.369Z,58.78
2023-04-12T21:32:02.210Z,57.40
2023-04-12T21:35:16.342Z,52.97
2023-04-12T21:38:28.683Z,51.35
2023-04-12T21:41:41.386Z,43.78
2023-04-12T21:44:53.683Z,39.00
2023-04-12T21:48:06.861Z,40.97
2023-04-12T21:51:19.276Z,32.75
2023-04-12T21:54:35.083Z,32.85
2023-04-12T22:01:00.260Z,27.80
2023-04-12T22:04:13.045Z,29.40
2023-04-12T22:07:26.802Z,31.70
2023-04-12T22:10:39.530Z,30.33
2023-04-12T22:13:51.856Z,28.62
2023-04-12T22:17:06.094Z,26.48
2023-04-12T22:20:18.576Z,25.40
2023-04-12T22:23:31.329Z,24.70
2023-04-12T22:26:43.708Z,21.35
2023-04-12T22:29:57.171Z,25.08
2023-04-12T22:33:09.535Z,20.67
2023-04-12T22:36:22.414Z,22.58
2023-04-12T22:39:35.713Z,18.73
2023-04-12T22:42:48.463Z,21.50
2023-04-12T22:46:05.128Z,25.30
2023-04-12T22:49:18.102Z,28.95
2023-04-12T22:52:33.566Z,27.00
2023-04-12T22:55:46.217Z,26.85
2023-04-12T22:58:58.861Z,25.05
2023-04-12T23:02:12.028Z,26.30
2023-04-12T23:05:25.285Z,25.12
2023-04-12T23:08:38.698Z,25.08
2023-04-12T23:11:51.668Z,24.95
2023-04-12T23:15:06.478Z,21.17
2023-04-12T23:18:18.857Z,23.83
2023-04-12T23:21:31.538Z,24.77
2023-04-12T23:24:44.378Z,25.33
2023-04-12T23:27:57.467Z,28.85
2023-04-12T23:31:10.032Z,25.00
2023-04-12T23:34:22.728Z,26.23
2023-04-12T23:37:36.845Z,23.23
2023-04-12T23:40:53.678Z,21.77
2023-04-12T23:44:06.628Z,24.25
2023-04-12T23:47:19.307Z,22.42
2023-04-12T23:50:32.604Z,24.48
2023-04-12T23:53:45.441Z,26.37
2023-04-12T23:56:58.010Z,27.73
